sensor_id;sensor_type;location;lat;lon;timestamp;pressure;altitude;pressure_sealevel;temperature;humidity
70468;BME280;57934;51.532;7.684;2022-07-12T00:02:19;101226.00;;;15.38;85.32
70468;BME280;57934;51.532;7.684;2022-07-12T00:04:45;101226.81;;;15.32;85.46
70468;BME280;57934;51.532;7.684;2022-07-12T00:07:11;101223.72;;;15.28;85.66
70468;BME280;57934;51.532;7.684;2022-07-12T00:09:37;101225.97;;;15.25;85.69
70468;BME280;57934;51.532;7.684;2022-07-12T00:12:04;101222.47;;;15.18;85.73
70468;BME280;57934;51.532;7.684;2022-07-12T00:14:30;101229.63;;;15.11;86.13
70468;BME280;57934;51.532;7.684;2022-07-12T00:16:56;101232.25;;;15.04;86.81
70468;BME280;57934;51.532;7.684;2022-07-12T00:19:22;101223.84;;;15.00;86.74
70468;BME280;57934;51.532;7.684;2022-07-12T00:21:48;101227.94;;;14.96;87.04
70468;BME280;57934;51.532;7.684;2022-07-12T00:24:14;101226.31;;;14.95;87.23
70468;BME280;57934;51.532;7.684;2022-07-12T00:26:40;101225.47;;;14.95;87.32
70468;BME280;57934;51.532;7.684;2022-07-12T00:29:06;101223.00;;;14.93;87.16
70468;BME280;57934;51.532;7.684;2022-07-12T00:31:32;101216.47;;;14.89;87.46
70468;BME280;57934;51.532;7.684;2022-07-12T00:33:58;101213.38;;;14.86;87.39
70468;BME280;57934;51.532;7.684;2022-07-12T00:36:24;101210.31;;;14.82;87.42
70468;BME280;57934;51.532;7.684;2022-07-12T00:38:50;101210.88;;;14.77;87.43
70468;BME280;57934;51.532;7.684;2022-07-12T00:41:16;101218.44;;;14.74;87.69
70468;BME280;57934;51.532;7.684;2022-07-12T00:43:42;101215.56;;;14.69;88.13
70468;BME280;57934;51.532;7.684;2022-07-12T00:46:09;101213.94;;;14.68;88.02
70468;BME280;57934;51.532;7.684;2022-07-12T00:48:35;101208.63;;;14.68;88.09
70468;BME280;57934;51.532;7.684;2022-07-12T00:51:02;101210.63;;;14.66;88.10
70468;BME280;57934;51.532;7.684;2022-07-12T00:53:28;101212.28;;;14.67;88.35
70468;BME280;57934;51.532;7.684;2022-07-12T00:55:58;101202.69;;;14.66;88.26
70468;BME280;57934;51.532;7.684;2022-07-12T00:58:25;101197.97;;;14.61;88.34
70468;BME280;57934;51.532;7.684;2022-07-12T01:00:55;101199.16;;;14.59;88.42
70468;BME280;57934;51.532;7.684;2022-07-12T01:03:21;101207.53;;;14.55;88.58
70468;BME280;57934;51.532;7.684;2022-07-12T01:05:47;101199.56;;;14.55;88.81
70468;BME280;57934;51.532;7.684;2022-07-12T01:08:14;101208.53;;;14.54;88.94
70468;BME280;57934;51.532;7.684;2022-07-12T01:10:40;101208.13;;;14.51;89.10
70468;BME280;57934;51.532;7.684;2022-07-12T01:13:06;101198.53;;;14.50;89.07
70468;BME280;57934;51.532;7.684;2022-07-12T01:19:21;101201.50;;;14.40;89.91
70468;BME280;57934;51.532;7.684;2022-07-12T01:23:08;101203.50;;;14.38;89.85
70468;BME280;57934;51.532;7.684;2022-07-12T01:26:30;101200.88;;;14.38;89.85
70468;BME280;57934;51.532;7.684;2022-07-12T01:33:09;101198.22;;;14.38;89.77
70468;BME280;57934;51.532;7.684;2022-07-12T01:36:31;101200.06;;;14.38;89.73
70468;BME280;57934;51.532;7.684;2022-07-12T01:40:18;101196.97;;;14.34;89.71
70468;BME280;57934;51.532;7.684;2022-07-12T01:47:38;101198.56;;;14.28;89.47
70468;BME280;57934;51.532;7.684;2022-07-12T01:58:21;101188.75;;;14.22;90.01
70468;BME280;57934;51.532;7.684;2022-07-12T02:01:42;101181.78;;;14.21;90.00
70468;BME280;57934;51.532;7.684;2022-07-12T02:19:29;101178.91;;;14.16;89.77
70468;BME280;57934;51.532;7.684;2022-07-12T02:26:11;101184.94;;;14.03;89.63
70468;BME280;57934;51.532;7.684;2022-07-12T02:40:42;101203.75;;;14.08;89.71
70468;BME280;57934;51.532;7.684;2022-07-12T02:46:51;101213.94;;;14.05;89.65
70468;BME280;57934;51.532;7.684;2022-07-12T02:53:48;101220.84;;;14.06;89.61
70468;BME280;57934;51.532;7.684;2022-07-12T03:00:53;101224.47;;;13.98;89.73
70468;BME280;57934;51.532;7.684;2022-07-12T03:12:22;101233.72;;;13.81;89.61
70468;BME280;57934;51.532;7.684;2022-07-12T03:22:59;101237.88;;;13.69;89.61
70468;BME280;57934;51.532;7.684;2022-07-12T03:26:31;101234.84;;;13.72;89.40
70468;BME280;57934;51.532;7.684;2022-07-12T03:29:38;101232.03;;;13.73;88.98
70468;BME280;57934;51.532;7.684;2022-07-12T03:32:47;101230.56;;;13.71;88.91
70468;BME280;57934;51.532;7.684;2022-07-12T03:36:12;101230.94;;;13.68;88.87
70468;BME280;57934;51.532;7.684;2022-07-12T03:39:31;101221.81;;;13.70;89.08
70468;BME280;57934;51.532;7.684;2022-07-12T03:42:50;101224.63;;;13.69;89.10
70468;BME280;57934;51.532;7.684;2022-07-12T03:45:50;101228.56;;;13.73;89.22
70468;BME280;57934;51.532;7.684;2022-07-12T03:49:19;101233.22;;;13.71;89.16
70468;BME280;57934;51.532;7.684;2022-07-12T03:55:42;101230.19;;;13.74;88.95
70468;BME280;57934;51.532;7.684;2022-07-12T03:59:04;101233.47;;;13.76;88.76
70468;BME280;57934;51.532;7.684;2022-07-12T04:05:56;101229.22;;;13.81;88.68
70468;BME280;57934;51.532;7.684;2022-07-12T04:09:12;101234.97;;;13.85;88.96
70468;BME280;57934;51.532;7.684;2022-07-12T04:12:19;101233.19;;;13.92;89.11
70468;BME280;57934;51.532;7.684;2022-07-12T04:15:11;101233.63;;;13.96;89.15
70468;BME280;57934;51.532;7.684;2022-07-12T04:22:31;101232.53;;;14.12;89.00
70468;BME280;57934;51.532;7.684;2022-07-12T04:29:17;101226.06;;;14.21;89.22
70468;BME280;57934;51.532;7.684;2022-07-12T04:35:46;101232.22;;;14.28;89.31
70468;BME280;57934;51.532;7.684;2022-07-12T04:38:56;101237.78;;;14.33;89.39
70468;BME280;57934;51.532;7.684;2022-07-12T04:42:23;101235.75;;;14.35;89.53
70468;BME280;57934;51.532;7.684;2022-07-12T04:46:13;101238.00;;;14.38;89.72
70468;BME280;57934;51.532;7.684;2022-07-12T04:49:38;101240.28;;;14.41;89.74
70468;BME280;57934;51.532;7.684;2022-07-12T04:53:18;101244.19;;;14.45;89.74
70468;BME280;57934;51.532;7.684;2022-07-12T04:55:55;101244.00;;;14.47;89.78
70468;BME280;57934;51.532;7.684;2022-07-12T04:59:25;101246.44;;;14.48;89.68
70468;BME280;57934;51.532;7.684;2022-07-12T05:02:08;101244.47;;;14.50;89.93
70468;BME280;57934;51.532;7.684;2022-07-12T05:05:22;101255.31;;;14.55;89.97
70468;BME280;57934;51.532;7.684;2022-07-12T05:08:20;101255.94;;;14.58;89.77
70468;BME280;57934;51.532;7.684;2022-07-12T05:11:20;101270.25;;;14.63;89.85
70468;BME280;57934;51.532;7.684;2022-07-12T05:14:28;101265.38;;;14.67;89.53
70468;BME280;57934;51.532;7.684;2022-07-12T05:18:03;101268.44;;;14.70;89.27
70468;BME280;57934;51.532;7.684;2022-07-12T05:21:34;101272.16;;;14.76;89.27
70468;BME280;57934;51.532;7.684;2022-07-12T05:25:30;101267.06;;;14.81;89.42
70468;BME280;57934;51.532;7.684;2022-07-12T05:28:49;101272.41;;;14.88;89.40
70468;BME280;57934;51.532;7.684;2022-07-12T05:32:19;101281.66;;;14.98;89.41
70468;BME280;57934;51.532;7.684;2022-07-12T05:35:59;101278.66;;;15.08;89.42
70468;BME280;57934;51.532;7.684;2022-07-12T05:39:24;101278.91;;;15.20;89.23
70468;BME280;57934;51.532;7.684;2022-07-12T05:43:01;101281.63;;;15.40;88.83
70468;BME280;57934;51.532;7.684;2022-07-12T05:46:26;101280.03;;;15.59;88.18
70468;BME280;57934;51.532;7.684;2022-07-12T05:49:41;101281.50;;;15.74;87.51
70468;BME280;57934;51.532;7.684;2022-07-12T05:52:46;101272.34;;;15.97;86.88
70468;BME280;57934;51.532;7.684;2022-07-12T05:59:07;101284.41;;;16.33;85.30
70468;BME280;57934;51.532;7.684;2022-07-12T06:02:32;101281.28;;;16.56;84.92
70468;BME280;57934;51.532;7.684;2022-07-12T06:08:29;101288.63;;;16.74;83.72
70468;BME280;57934;51.532;7.684;2022-07-12T06:11:57;101292.34;;;16.79;83.38
70468;BME280;57934;51.532;7.684;2022-07-12T06:15:34;101299.28;;;16.87;83.25
70468;BME280;57934;51.532;7.684;2022-07-12T06:22:41;101289.16;;;17.02;82.52
70468;BME280;57934;51.532;7.684;2022-07-12T06:26:00;101290.97;;;17.15;82.43
70468;BME280;57934;51.532;7.684;2022-07-12T06:32:17;101294.47;;;17.54;81.95
70468;BME280;57934;51.532;7.684;2022-07-12T06:35:23;101288.63;;;17.70;80.99
70468;BME280;57934;51.532;7.684;2022-07-12T06:39:13;101289.00;;;18.05;80.31
70468;BME280;57934;51.532;7.684;2022-07-12T06:42:26;101286.47;;;18.35;79.51
70468;BME280;57934;51.532;7.684;2022-07-12T06:46:10;101288.88;;;18.62;78.24
70468;BME280;57934;51.532;7.684;2022-07-12T14:53:35;101106.75;;;28.86;31.67
70468;BME280;57934;51.532;7.684;2022-07-12T14:56:01;101107.19;;;28.74;31.47
70468;BME280;57934;51.532;7.684;2022-07-12T14:58:27;101109.75;;;28.85;32.10
70468;BME280;57934;51.532;7.684;2022-07-12T15:00:56;101109.38;;;28.91;32.25
70468;BME280;57934;51.532;7.684;2022-07-12T15:03:22;101097.69;;;28.91;31.94
70468;BME280;57934;51.532;7.684;2022-07-12T15:05:48;101101.09;;;28.83;31.64
70468;BME280;57934;51.532;7.684;2022-07-12T15:08:14;101095.81;;;28.72;31.82
70468;BME280;57934;51.532;7.684;2022-07-12T15:10:40;101098.00;;;28.70;32.08
70468;BME280;57934;51.532;7.684;2022-07-12T15:13:06;101102.66;;;28.70;32.15
70468;BME280;57934;51.532;7.684;2022-07-12T15:15:32;101089.81;;;28.75;31.89
70468;BME280;57934;51.532;7.684;2022-07-12T15:17:58;101095.88;;;28.67;31.31
70468;BME280;57934;51.532;7.684;2022-07-12T15:20:24;101094.88;;;28.63;32.22
70468;BME280;57934;51.532;7.684;2022-07-12T15:22:51;101095.59;;;28.69;31.96
70468;BME280;57934;51.532;7.684;2022-07-12T15:25:17;101096.47;;;28.83;31.85
70468;BME280;57934;51.532;7.684;2022-07-12T15:27:43;101095.38;;;29.03;32.36
70468;BME280;57934;51.532;7.684;2022-07-12T15:30:10;101094.97;;;29.10;31.41
70468;BME280;57934;51.532;7.684;2022-07-12T15:32:37;101086.59;;;29.06;31.31
70468;BME280;57934;51.532;7.684;2022-07-12T15:35:04;101089.06;;;29.21;31.19
70468;BME280;57934;51.532;7.684;2022-07-12T15:37:30;101091.22;;;29.38;30.69
70468;BME280;57934;51.532;7.684;2022-07-12T15:39:56;101077.34;;;29.54;31.00
70468;BME280;57934;51.532;7.684;2022-07-12T15:42:22;101088.72;;;29.42;31.06
70468;BME280;57934;51.532;7.684;2022-07-12T15:44:48;101086.69;;;29.47;31.34
70468;BME280;57934;51.532;7.684;2022-07-12T15:47:14;101089.19;;;29.30;31.36
70468;BME280;57934;51.532;7.684;2022-07-12T15:49:40;101086.94;;;29.18;31.09
70468;BME280;57934;51.532;7.684;2022-07-12T15:52:06;101085.03;;;29.19;31.78
70468;BME280;57934;51.532;7.684;2022-07-12T15:54:51;101083.88;;;29.06;31.45
70468;BME280;57934;51.532;7.684;2022-07-12T15:57:17;101081.28;;;28.82;32.00
70468;BME280;57934;51.532;7.684;2022-07-12T15:59:43;101077.09;;;28.71;31.47
70468;BME280;57934;51.532;7.684;2022-07-12T16:02:09;101076.09;;;28.67;33.07
70468;BME280;57934;51.532;7.684;2022-07-12T16:04:35;101075.72;;;28.73;32.47
70468;BME280;57934;51.532;7.684;2022-07-12T16:07:02;101066.66;;;28.64;31.96
70468;BME280;57934;51.532;7.684;2022-07-12T16:09:29;101072.06;;;28.64;33.04
70468;BME280;57934;51.532;7.684;2022-07-12T16:11:55;101069.19;;;28.56;32.53
70468;BME280;57934;51.532;7.684;2022-07-12T16:14:24;101068.03;;;28.62;32.29
70468;BME280;57934;51.532;7.684;2022-07-12T16:16:51;101064.50;;;28.61;32.13
70468;BME280;57934;51.532;7.684;2022-07-12T16:19:17;101058.25;;;28.61;32.54
70468;BME280;57934;51.532;7.684;2022-07-12T16:21:43;101061.88;;;28.56;33.13
70468;BME280;57934;51.532;7.684;2022-07-12T16:24:09;101059.53;;;28.49;33.09
70468;BME280;57934;51.532;7.684;2022-07-12T16:26:35;101053.50;;;28.34;32.72
70468;BME280;57934;51.532;7.684;2022-07-12T16:29:01;101057.38;;;28.27;33.11
70468;BME280;57934;51.532;7.684;2022-07-12T16:31:27;101054.66;;;28.27;33.36
70468;BME280;57934;51.532;7.684;2022-07-12T16:33:53;101050.41;;;28.21;33.23
70468;BME280;57934;51.532;7.684;2022-07-12T16:36:19;101041.53;;;28.16;33.34
70468;BME280;57934;51.532;7.684;2022-07-12T16:38:45;101050.94;;;28.23;33.69
70468;BME280;57934;51.532;7.684;2022-07-12T16:41:11;101051.16;;;28.27;33.83
70468;BME280;57934;51.532;7.684;2022-07-12T16:43:37;101047.63;;;28.26;33.04
70468;BME280;57934;51.532;7.684;2022-07-12T16:46:05;101047.25;;;28.14;33.64
70468;BME280;57934;51.532;7.684;2022-07-12T16:48:31;101036.13;;;28.16;33.91
70468;BME280;57934;51.532;7.684;2022-07-12T16:50:57;101038.31;;;28.14;34.26
70468;BME280;57934;51.532;7.684;2022-07-12T16:53:42;101042.69;;;28.10;34.70
70468;BME280;57934;51.532;7.684;2022-07-12T16:56:07;101042.84;;;27.99;34.64
70468;BME280;57934;51.532;7.684;2022-07-12T16:58:33;101033.22;;;27.88;34.68
70468;BME280;57934;51.532;7.684;2022-07-12T17:00:59;101038.47;;;27.79;34.75
70468;BME280;57934;51.532;7.684;2022-07-12T17:03:25;101040.78;;;27.67;34.72
70468;BME280;57934;51.532;7.684;2022-07-12T17:05:51;101035.69;;;27.60;34.59
70468;BME280;57934;51.532;7.684;2022-07-12T17:08:17;101029.59;;;27.50;34.35
70468;BME280;57934;51.532;7.684;2022-07-12T17:10:43;101030.09;;;27.52;35.98
70468;BME280;57934;51.532;7.684;2022-07-12T17:13:09;101026.66;;;27.46;35.00
70468;BME280;57934;51.532;7.684;2022-07-12T17:15:35;101026.47;;;27.38;34.84
70468;BME280;57934;51.532;7.684;2022-07-12T17:18:01;101021.13;;;27.32;35.28
70468;BME280;57934;51.532;7.684;2022-07-12T17:20:27;101026.84;;;27.31;35.65
70468;BME280;57934;51.532;7.684;2022-07-12T17:22:53;101025.53;;;27.23;35.38
70468;BME280;57934;51.532;7.684;2022-07-12T17:25:19;101022.25;;;27.26;35.93
70468;BME280;57934;51.532;7.684;2022-07-12T17:27:45;101021.19;;;27.27;35.74
70468;BME280;57934;51.532;7.684;2022-07-12T17:30:11;101020.34;;;27.27;35.88
70468;BME280;57934;51.532;7.684;2022-07-12T17:32:38;101027.06;;;27.34;36.72
70468;BME280;57934;51.532;7.684;2022-07-12T17:35:07;101024.75;;;27.47;37.01
70468;BME280;57934;51.532;7.684;2022-07-12T17:37:33;101016.50;;;27.57;36.55
70468;BME280;57934;51.532;7.684;2022-07-12T17:39:59;101018.78;;;27.69;38.14
70468;BME280;57934;51.532;7.684;2022-07-12T17:42:25;101016.84;;;27.74;37.66
70468;BME280;57934;51.532;7.684;2022-07-12T17:44:51;101016.59;;;27.71;36.70
70468;BME280;57934;51.532;7.684;2022-07-12T17:47:17;101014.25;;;27.64;36.81
70468;BME280;57934;51.532;7.684;2022-07-12T17:49:42;101019.56;;;27.50;36.46
70468;BME280;57934;51.532;7.684;2022-07-12T17:52:08;101008.91;;;27.35;36.70
70468;BME280;57934;51.532;7.684;2022-07-12T17:54:34;101014.94;;;27.27;38.77
70468;BME280;57934;51.532;7.684;2022-07-12T17:57:00;101017.47;;;27.18;37.89
70468;BME280;57934;51.532;7.684;2022-07-12T17:59:26;101018.84;;;27.16;37.76
70468;BME280;57934;51.532;7.684;2022-07-12T18:01:52;101025.06;;;27.16;37.94
70468;BME280;57934;51.532;7.684;2022-07-12T18:04:18;101016.97;;;27.11;38.17
70468;BME280;57934;51.532;7.684;2022-07-12T18:06:44;101021.69;;;27.00;40.13
70468;BME280;57934;51.532;7.684;2022-07-12T18:09:12;101028.38;;;26.79;38.94
70468;BME280;57934;51.532;7.684;2022-07-12T18:11:38;101029.00;;;26.65;39.33
70468;BME280;57934;51.532;7.684;2022-07-12T18:14:23;101027.28;;;26.40;39.34
70468;BME280;57934;51.532;7.684;2022-07-12T18:17:10;101025.19;;;26.27;40.30
70468;BME280;57934;51.532;7.684;2022-07-12T18:19:55;101023.16;;;26.09;41.94
70468;BME280;57934;51.532;7.684;2022-07-12T18:22:20;101025.91;;;25.93;43.03
70468;BME280;57934;51.532;7.684;2022-07-12T18:24:47;101029.75;;;25.77;43.11
70468;BME280;57934;51.532;7.684;2022-07-12T18:27:13;101030.31;;;25.69;42.71
70468;BME280;57934;51.532;7.684;2022-07-12T18:29:39;101031.44;;;25.63;42.87
70468;BME280;57934;51.532;7.684;2022-07-12T18:32:05;101021.97;;;25.55;43.36
70468;BME280;57934;51.532;7.684;2022-07-12T18:34:31;101015.53;;;25.46;43.33
70468;BME280;57934;51.532;7.684;2022-07-12T18:36:57;101026.63;;;25.39;43.57
70468;BME280;57934;51.532;7.684;2022-07-12T18:39:23;101028.81;;;25.32;44.43
70468;BME280;57934;51.532;7.684;2022-07-12T18:41:50;101023.94;;;25.29;44.27
70468;BME280;57934;51.532;7.684;2022-07-12T18:44:17;101027.19;;;25.26;44.31
70468;BME280;57934;51.532;7.684;2022-07-12T18:46:43;101023.41;;;25.22;44.49
70468;BME280;57934;51.532;7.684;2022-07-12T18:49:10;101023.69;;;25.15;44.95
70468;BME280;57934;51.532;7.684;2022-07-12T18:51:37;101026.38;;;25.10;44.99
70468;BME280;57934;51.532;7.684;2022-07-12T18:54:04;101024.53;;;25.11;44.84
70468;BME280;57934;51.532;7.684;2022-07-12T18:56:30;101035.53;;;25.09;45.20
70468;BME280;57934;51.532;7.684;2022-07-12T18:58:56;101028.00;;;25.06;45.36
70468;BME280;57934;51.532;7.684;2022-07-12T19:01:23;101030.16;;;25.04;44.99
70468;BME280;57934;51.532;7.684;2022-07-12T19:03:49;101034.47;;;25.05;45.13
70468;BME280;57934;51.532;7.684;2022-07-12T19:06:17;101035.28;;;25.00;45.51
70468;BME280;57934;51.532;7.684;2022-07-12T19:08:43;101027.44;;;24.99;45.33
70468;BME280;57934;51.532;7.684;2022-07-12T19:11:09;101026.13;;;24.96;45.75
70468;BME280;57934;51.532;7.684;2022-07-12T19:13:35;101021.81;;;24.90;46.05
70468;BME280;57934;51.532;7.684;2022-07-12T19:16:01;101026.94;;;24.87;46.58
70468;BME280;57934;51.532;7.684;2022-07-12T19:18:27;101021.81;;;24.80;46.22
70468;BME280;57934;51.532;7.684;2022-07-12T19:20:53;101023.16;;;24.77;46.57
70468;BME280;57934;51.532;7.684;2022-07-12T19:23:20;101032.88;;;24.73;45.97
70468;BME280;57934;51.532;7.684;2022-07-12T19:25:46;101032.34;;;24.71;45.98
70468;BME280;57934;51.532;7.684;2022-07-12T19:28:12;101034.50;;;24.69;46.32
70468;BME280;57934;51.532;7.684;2022-07-12T19:30:38;101038.00;;;24.65;45.76
70468;BME280;57934;51.532;7.684;2022-07-12T19:33:04;101037.72;;;24.61;46.16
70468;BME280;57934;51.532;7.684;2022-07-12T19:35:30;101044.47;;;24.59;46.21
70468;BME280;57934;51.532;7.684;2022-07-12T19:37:56;101037.44;;;24.52;46.06
70468;BME280;57934;51.532;7.684;2022-07-12T19:40:25;101044.97;;;24.40;47.09
70468;BME280;57934;51.532;7.684;2022-07-12T19:42:52;101041.16;;;24.26;47.74
70468;BME280;57934;51.532;7.684;2022-07-12T19:45:18;101047.03;;;24.13;48.83
70468;BME280;57934;51.532;7.684;2022-07-12T19:47:44;101049.13;;;24.00;49.24
70468;BME280;57934;51.532;7.684;2022-07-12T19:50:10;101045.06;;;23.88;50.54
70468;BME280;57934;51.532;7.684;2022-07-12T19:52:36;101050.63;;;23.76;51.42
70468;BME280;57934;51.532;7.684;2022-07-12T19:55:03;101056.78;;;23.66;52.72
70468;BME280;57934;51.532;7.684;2022-07-12T19:57:29;101047.84;;;23.55;53.71
70468;BME280;57934;51.532;7.684;2022-07-12T19:59:55;101054.78;;;23.46;54.37
70468;BME280;57934;51.532;7.684;2022-07-12T20:02:21;101054.97;;;23.34;54.46
70468;BME280;57934;51.532;7.684;2022-07-12T20:04:48;101066.22;;;23.26;55.20
70468;BME280;57934;51.532;7.684;2022-07-12T20:07:14;101051.88;;;23.16;55.68
70468;BME280;57934;51.532;7.684;2022-07-12T20:09:40;101061.50;;;23.06;56.21
70468;BME280;57934;51.532;7.684;2022-07-12T20:12:08;101052.84;;;22.99;56.35
70468;BME280;57934;51.532;7.684;2022-07-12T20:14:34;101055.75;;;22.93;56.40
70468;BME280;57934;51.532;7.684;2022-07-12T20:17:00;101045.91;;;22.81;56.16
70468;BME280;57934;51.532;7.684;2022-07-12T20:19:26;101049.94;;;22.79;55.82
70468;BME280;57934;51.532;7.684;2022-07-12T20:21:54;101038.59;;;22.72;55.82
70468;BME280;57934;51.532;7.684;2022-07-12T20:24:20;101038.59;;;22.72;56.17
70468;BME280;57934;51.532;7.684;2022-07-12T20:26:46;101036.09;;;22.65;55.85
70468;BME280;57934;51.532;7.684;2022-07-12T20:29:12;101040.63;;;22.59;56.08
70468;BME280;57934;51.532;7.684;2022-07-12T20:31:38;101040.81;;;22.53;56.48
70468;BME280;57934;51.532;7.684;2022-07-12T20:34:04;101037.28;;;22.47;56.97
70468;BME280;57934;51.532;7.684;2022-07-12T20:36:48;101036.97;;;22.44;56.84
70468;BME280;57934;51.532;7.684;2022-07-12T20:39:14;101033.13;;;22.34;57.02
70468;BME280;57934;51.532;7.684;2022-07-12T20:41:40;101037.09;;;22.32;57.55
70468;BME280;57934;51.532;7.684;2022-07-12T20:44:06;101030.94;;;22.31;57.63
70468;BME280;57934;51.532;7.684;2022-07-12T20:46:32;101031.72;;;22.32;57.20
70468;BME280;57934;51.532;7.684;2022-07-12T20:48:58;101030.63;;;22.28;57.80
70468;BME280;57934;51.532;7.684;2022-07-12T20:51:24;101031.09;;;22.20;57.63
70468;BME280;57934;51.532;7.684;2022-07-12T20:53:50;101020.84;;;22.17;57.93
70468;BME280;57934;51.532;7.684;2022-07-12T20:56:18;101030.13;;;22.09;57.88
70468;BME280;57934;51.532;7.684;2022-07-12T20:58:44;101031.44;;;22.06;57.80
70468;BME280;57934;51.532;7.684;2022-07-12T21:01:11;101037.38;;;22.08;58.11
70468;BME280;57934;51.532;7.684;2022-07-12T21:03:37;101034.94;;;22.07;57.47
70468;BME280;57934;51.532;7.684;2022-07-12T21:06:04;101033.81;;;22.03;57.82
70468;BME280;57934;51.532;7.684;2022-07-12T21:08:30;101033.75;;;21.98;57.70
70468;BME280;57934;51.532;7.684;2022-07-12T21:10:57;101043.13;;;21.95;57.02
70468;BME280;57934;51.532;7.684;2022-07-12T21:13:23;101042.31;;;21.95;57.53
70468;BME280;57934;51.532;7.684;2022-07-12T21:15:49;101043.66;;;21.97;57.45
70468;BME280;57934;51.532;7.684;2022-07-12T21:18:15;101046.63;;;21.96;57.30
70468;BME280;57934;51.532;7.684;2022-07-12T21:20:42;101047.69;;;21.95;57.87
70468;BME280;57934;51.532;7.684;2022-07-12T21:23:08;101050.38;;;21.95;58.26
70468;BME280;57934;51.532;7.684;2022-07-12T21:25:34;101048.50;;;21.95;57.69
70468;BME280;57934;51.532;7.684;2022-07-12T21:28:01;101044.19;;;21.94;57.49
70468;BME280;57934;51.532;7.684;2022-07-12T21:30:28;101043.88;;;21.90;56.84
70468;BME280;57934;51.532;7.684;2022-07-12T21:32:57;101044.94;;;21.89;57.11
70468;BME280;57934;51.532;7.684;2022-07-12T21:35:23;101045.72;;;21.90;56.83
70468;BME280;57934;51.532;7.684;2022-07-12T21:37:50;101048.94;;;21.87;58.52
70468;BME280;57934;51.532;7.684;2022-07-12T21:40:16;101057.50;;;21.84;57.37
70468;BME280;57934;51.532;7.684;2022-07-12T21:42:42;101056.09;;;21.81;57.33
70468;BME280;57934;51.532;7.684;2022-07-12T21:45:08;101048.84;;;21.82;57.71
70468;BME280;57934;51.532;7.684;2022-07-12T21:47:35;101048.56;;;21.78;57.99
70468;BME280;57934;51.532;7.684;2022-07-12T21:50:01;101053.03;;;21.73;58.38
70468;BME280;57934;51.532;7.684;2022-07-12T21:52:28;101051.91;;;21.68;58.04
70468;BME280;57934;51.532;7.684;2022-07-12T21:54:54;101049.78;;;21.71;58.18
70468;BME280;57934;51.532;7.684;2022-07-12T21:57:20;101047.34;;;21.69;57.87
70468;BME280;57934;51.532;7.684;2022-07-12T21:59:48;101036.28;;;21.65;58.03
70468;BME280;57934;51.532;7.684;2022-07-12T22:02:14;101030.09;;;21.65;57.92
70468;BME280;57934;51.532;7.684;2022-07-12T22:04:40;101022.22;;;21.58;58.07
70468;BME280;57934;51.532;7.684;2022-07-12T22:07:06;101014.94;;;21.54;58.05
70468;BME280;57934;51.532;7.684;2022-07-12T22:09:32;101023.25;;;21.52;58.49
70468;BME280;57934;51.532;7.684;2022-07-12T22:11:59;101008.19;;;21.51;58.64
70468;BME280;57934;51.532;7.684;2022-07-12T22:14:25;101008.44;;;21.50;58.47
70468;BME280;57934;51.532;7.684;2022-07-12T22:16:51;101007.38;;;21.51;58.77
70468;BME280;57934;51.532;7.684;2022-07-12T22:19:17;101004.94;;;21.49;58.82
70468;BME280;57934;51.532;7.684;2022-07-12T22:21:43;101003.06;;;21.50;58.78
70468;BME280;57934;51.532;7.684;2022-07-12T22:24:10;100999.59;;;21.49;58.59
70468;BME280;57934;51.532;7.684;2022-07-12T22:26:37;101001.19;;;21.50;58.53
70468;BME280;57934;51.532;7.684;2022-07-12T22:29:03;101002.00;;;21.51;58.13
70468;BME280;57934;51.532;7.684;2022-07-12T22:31:29;100994.44;;;21.48;58.29
70468;BME280;57934;51.532;7.684;2022-07-12T22:33:56;100995.19;;;21.43;59.10
70468;BME280;57934;51.532;7.684;2022-07-12T22:36:22;100991.41;;;21.39;58.89
70468;BME280;57934;51.532;7.684;2022-07-12T22:38:48;100988.41;;;21.35;59.07
70468;BME280;57934;51.532;7.684;2022-07-12T22:41:13;100984.28;;;21.33;59.11
70468;BME280;57934;51.532;7.684;2022-07-12T22:43:39;100978.59;;;21.29;59.14
70468;BME280;57934;51.532;7.684;2022-07-12T22:46:05;100978.28;;;21.26;59.57
70468;BME280;57934;51.532;7.684;2022-07-12T22:48:31;100978.78;;;21.23;59.79
70468;BME280;57934;51.532;7.684;2022-07-12T22:50:59;100983.50;;;21.15;59.61
70468;BME280;57934;51.532;7.684;2022-07-12T22:53:44;100981.31;;;21.12;59.65
70468;BME280;57934;51.532;7.684;2022-07-12T22:56:10;100982.13;;;21.13;59.72
70468;BME280;57934;51.532;7.684;2022-07-12T22:58:36;100963.59;;;21.11;59.52
70468;BME280;57934;51.532;7.684;2022-07-12T23:01:02;100967.59;;;21.09;59.51
70468;BME280;57934;51.532;7.684;2022-07-12T23:03:28;100956.06;;;21.08;59.69
70468;BME280;57934;51.532;7.684;2022-07-12T23:05:54;100955.50;;;21.06;59.85
70468;BME280;57934;51.532;7.684;2022-07-12T23:08:20;100966.22;;;21.06;59.64
70468;BME280;57934;51.532;7.684;2022-07-12T23:10:46;100969.47;;;21.08;59.70
70468;BME280;57934;51.532;7.684;2022-07-12T23:13:12;100976.44;;;21.09;59.24
70468;BME280;57934;51.532;7.684;2022-07-12T23:15:37;100973.53;;;21.11;59.22
70468;BME280;57934;51.532;7.684;2022-07-12T23:18:04;100982.66;;;21.10;59.09
70468;BME280;57934;51.532;7.684;2022-07-12T23:20:31;100982.06;;;21.08;59.45
70468;BME280;57934;51.532;7.684;2022-07-12T23:22:56;100981.25;;;21.07;59.59
70468;BME280;57934;51.532;7.684;2022-07-12T23:25:22;100991.19;;;21.07;59.56
70468;BME280;57934;51.532;7.684;2022-07-12T23:27:49;101000.25;;;21.06;59.67
70468;BME280;57934;51.532;7.684;2022-07-12T23:30:15;100996.78;;;21.05;59.44
70468;BME280;57934;51.532;7.684;2022-07-12T23:32:40;100990.84;;;21.03;59.66
70468;BME280;57934;51.532;7.684;2022-07-12T23:35:07;100985.50;;;21.03;59.54
70468;BME280;57934;51.532;7.684;2022-07-12T23:37:33;100986.78;;;21.01;59.58